Huvudsida
METAR-TAF:

METAR-TAF

Flygplatser :

Chillán, Chile

latitud: 36-34S, longitud: 072-02W, höjd: 124 m

Aktuellt väderrapport

Denna rapport gjordes för 48 minuter sedan, klockan 23:00 UTC
Vind 9 kt från nordost
Temperatur 13°C
Fuktighet 82%
Tryck 1016 hPa

METAR: SCCH 262300Z AUTO 05009KT //// R/////// ///////// 13/10 Q1016

Tid: 19:48 (23:48 UTC)


TAF: saknas

Aktuella väderrapporter och prognoser från 4000 flygplatser (METAR- och TAF-rapporter).

De tillgängliga stationerna syns som gula och röda prickar på kartan.

För musen över prickarna för att se namnen på stationerna.

Klicka sedan för att få väderrapporter och prognoser.

För att ändra kartan: Klicka på de gröna knapparna med ett svart kors på för att zooma in; den gröna knappen med ett streck på för att zooma ut; eller på de gröna pilarna för angränsande kartor.


METAR-TAF: